Terminal Aerodrome Forecast
Issued by NWS Dodge City, KS

Home | Current Version | Previous Version | Graphics & Text | Print | Product List | Glossary Off
Versions: 1 2 3 4 5 6 7 8 9 10 11 12 13 14 15 16 17 18 19 20 21 22 23 24 25 26 27 28

000
FTUS43 KDDC 271326 AAA
TAFDDC
TAF AMD
KDDC 271326Z 2713/2812 07007KT P6SM FEW016 FEW100 SCT110
     FM280400 11006KT P6SM SCT250
     FM280900 08005KT P6SM BKN130=

USA.gov is the U.S. government's official web portal to all federal, state and local government web resources and services.